sensor_id;sensor_type;location;lat;lon;timestamp;temperature;humidity
36638;DHT22;22637;48.150;11.574;2022-07-26T00:01:38;21.70;49.10
36638;DHT22;22637;48.150;11.574;2022-07-26T00:04:03;21.70;49.70
36638;DHT22;22637;48.150;11.574;2022-07-26T00:06:29;21.80;52.60
36638;DHT22;22637;48.150;11.574;2022-07-26T00:08:54;21.80;50.00
36638;DHT22;22637;48.150;11.574;2022-07-26T00:11:20;21.80;48.70
36638;DHT22;22637;48.150;11.574;2022-07-26T00:13:46;21.80;48.60
36638;DHT22;22637;48.150;11.574;2022-07-26T00:16:11;21.80;48.60
36638;DHT22;22637;48.150;11.574;2022-07-26T00:18:37;21.80;48.60
36638;DHT22;22637;48.150;11.574;2022-07-26T00:21:02;21.80;47.90
36638;DHT22;22637;48.150;11.574;2022-07-26T00:23:28;21.80;47.30
36638;DHT22;22637;48.150;11.574;2022-07-26T00:25:53;21.80;50.20
36638;DHT22;22637;48.150;11.574;2022-07-26T00:28:19;21.80;49.80
36638;DHT22;22637;48.150;11.574;2022-07-26T00:30:44;21.70;48.40
36638;DHT22;22637;48.150;11.574;2022-07-26T00:33:10;21.70;50.50
36638;DHT22;22637;48.150;11.574;2022-07-26T00:35:36;21.70;49.30
36638;DHT22;22637;48.150;11.574;2022-07-26T00:38:03;21.70;51.20
36638;DHT22;22637;48.150;11.574;2022-07-26T00:40:29;21.60;50.00
36638;DHT22;22637;48.150;11.574;2022-07-26T00:42:54;21.60;49.70
36638;DHT22;22637;48.150;11.574;2022-07-26T00:45:20;21.60;49.70
36638;DHT22;22637;48.150;11.574;2022-07-26T00:47:45;21.60;49.60
36638;DHT22;22637;48.150;11.574;2022-07-26T00:50:12;21.50;49.40
36638;DHT22;22637;48.150;11.574;2022-07-26T00:52:40;21.50;49.90
36638;DHT22;22637;48.150;11.574;2022-07-26T00:55:06;21.60;49.90
36638;DHT22;22637;48.150;11.574;2022-07-26T00:57:32;21.50;49.80
36638;DHT22;22637;48.150;11.574;2022-07-26T00:59:57;21.50;48.60
36638;DHT22;22637;48.150;11.574;2022-07-26T01:02:25;21.50;48.70
36638;DHT22;22637;48.150;11.574;2022-07-26T01:04:50;21.50;49.20
36638;DHT22;22637;48.150;11.574;2022-07-26T01:07:16;21.50;49.40
36638;DHT22;22637;48.150;11.574;2022-07-26T01:09:42;21.50;49.00
36638;DHT22;22637;48.150;11.574;2022-07-26T01:12:07;21.60;49.70
36638;DHT22;22637;48.150;11.574;2022-07-26T01:14:33;21.60;49.00
36638;DHT22;22637;48.150;11.574;2022-07-26T01:16:59;21.50;51.00
36638;DHT22;22637;48.150;11.574;2022-07-26T01:19:24;21.60;50.00
36638;DHT22;22637;48.150;11.574;2022-07-26T01:21:50;21.60;50.50
36638;DHT22;22637;48.150;11.574;2022-07-26T01:24:16;21.60;49.70
36638;DHT22;22637;48.150;11.574;2022-07-26T01:26:41;21.60;51.40
36638;DHT22;22637;48.150;11.574;2022-07-26T01:29:07;21.60;50.50
36638;DHT22;22637;48.150;11.574;2022-07-26T01:31:32;21.60;49.80
36638;DHT22;22637;48.150;11.574;2022-07-26T01:33:58;21.60;50.40
36638;DHT22;22637;48.150;11.574;2022-07-26T01:36:23;21.60;52.00
36638;DHT22;22637;48.150;11.574;2022-07-26T01:38:49;21.60;50.30
36638;DHT22;22637;48.150;11.574;2022-07-26T01:41:15;21.60;50.60
36638;DHT22;22637;48.150;11.574;2022-07-26T01:43:40;21.60;50.00
36638;DHT22;22637;48.150;11.574;2022-07-26T01:46:07;21.60;51.80
36638;DHT22;22637;48.150;11.574;2022-07-26T01:48:33;21.60;50.50
36638;DHT22;22637;48.150;11.574;2022-07-26T01:50:59;21.60;51.40
36638;DHT22;22637;48.150;11.574;2022-07-26T01:53:24;21.60;52.70
36638;DHT22;22637;48.150;11.574;2022-07-26T01:55:50;21.60;52.20
36638;DHT22;22637;48.150;11.574;2022-07-26T01:58:16;21.60;50.70
36638;DHT22;22637;48.150;11.574;2022-07-26T02:00:41;21.60;51.00
36638;DHT22;22637;48.150;11.574;2022-07-26T02:03:07;21.70;51.00
36638;DHT22;22637;48.150;11.574;2022-07-26T02:05:32;21.70;50.40
36638;DHT22;22637;48.150;11.574;2022-07-26T02:07:58;21.70;50.60
36638;DHT22;22637;48.150;11.574;2022-07-26T02:10:24;21.70;50.90
36638;DHT22;22637;48.150;11.574;2022-07-26T02:13:09;21.70;51.10
36638;DHT22;22637;48.150;11.574;2022-07-26T02:15:35;21.70;50.40
36638;DHT22;22637;48.150;11.574;2022-07-26T02:18:00;21.80;50.70
36638;DHT22;22637;48.150;11.574;2022-07-26T02:20:26;21.80;50.40
36638;DHT22;22637;48.150;11.574;2022-07-26T02:22:51;21.80;51.60
36638;DHT22;22637;48.150;11.574;2022-07-26T02:25:17;21.80;51.10
36638;DHT22;22637;48.150;11.574;2022-07-26T02:27:42;21.80;51.10
36638;DHT22;22637;48.150;11.574;2022-07-26T02:30:08;21.80;51.50
36638;DHT22;22637;48.150;11.574;2022-07-26T02:32:34;21.80;50.60
36638;DHT22;22637;48.150;11.574;2022-07-26T02:34:59;21.80;51.20
36638;DHT22;22637;48.150;11.574;2022-07-26T02:37:25;21.90;50.80
36638;DHT22;22637;48.150;11.574;2022-07-26T02:39:50;21.90;51.90
36638;DHT22;22637;48.150;11.574;2022-07-26T02:42:16;21.90;52.30
36638;DHT22;22637;48.150;11.574;2022-07-26T02:44:41;21.90;51.60
36638;DHT22;22637;48.150;11.574;2022-07-26T02:47:07;21.90;52.10
36638;DHT22;22637;48.150;11.574;2022-07-26T02:49:32;21.90;51.90
36638;DHT22;22637;48.150;11.574;2022-07-26T02:51:58;21.90;51.50
36638;DHT22;22637;48.150;11.574;2022-07-26T02:54:24;22.00;51.80
36638;DHT22;22637;48.150;11.574;2022-07-26T02:56:49;22.00;52.00
36638;DHT22;22637;48.150;11.574;2022-07-26T02:59:15;22.00;51.90
36638;DHT22;22637;48.150;11.574;2022-07-26T03:01:40;22.00;51.80
36638;DHT22;22637;48.150;11.574;2022-07-26T03:04:06;22.00;51.80
36638;DHT22;22637;48.150;11.574;2022-07-26T03:06:32;22.10;51.90
36638;DHT22;22637;48.150;11.574;2022-07-26T03:08:58;22.10;52.20
36638;DHT22;22637;48.150;11.574;2022-07-26T03:11:23;22.10;51.80
36638;DHT22;22637;48.150;11.574;2022-07-26T03:13:49;22.10;52.20
36638;DHT22;22637;48.150;11.574;2022-07-26T03:16:14;22.10;51.80
36638;DHT22;22637;48.150;11.574;2022-07-26T03:18:40;22.20;51.80
36638;DHT22;22637;48.150;11.574;2022-07-26T03:21:05;22.10;51.60
36638;DHT22;22637;48.150;11.574;2022-07-26T03:23:31;22.10;51.80
36638;DHT22;22637;48.150;11.574;2022-07-26T03:25:58;22.10;52.30
36638;DHT22;22637;48.150;11.574;2022-07-26T03:28:27;22.10;52.20
36638;DHT22;22637;48.150;11.574;2022-07-26T03:30:53;22.20;52.00
36638;DHT22;22637;48.150;11.574;2022-07-26T03:33:18;22.20;52.30
36638;DHT22;22637;48.150;11.574;2022-07-26T03:35:44;22.20;52.50
36638;DHT22;22637;48.150;11.574;2022-07-26T03:38:09;22.10;52.20
36638;DHT22;22637;48.150;11.574;2022-07-26T03:40:35;22.10;52.10
36638;DHT22;22637;48.150;11.574;2022-07-26T03:43:00;22.20;52.40
36638;DHT22;22637;48.150;11.574;2022-07-26T03:45:26;22.20;52.70
36638;DHT22;22637;48.150;11.574;2022-07-26T03:47:52;22.20;52.70
36638;DHT22;22637;48.150;11.574;2022-07-26T03:50:18;22.20;52.70
36638;DHT22;22637;48.150;11.574;2022-07-26T03:52:43;22.10;52.40
36638;DHT22;22637;48.150;11.574;2022-07-26T03:55:09;22.10;53.20
36638;DHT22;22637;48.150;11.574;2022-07-26T03:57:53;22.10;52.90
36638;DHT22;22637;48.150;11.574;2022-07-26T04:00:18;22.10;53.50
36638;DHT22;22637;48.150;11.574;2022-07-26T04:02:44;22.10;53.00
36638;DHT22;22637;48.150;11.574;2022-07-26T04:05:09;22.10;53.40
36638;DHT22;22637;48.150;11.574;2022-07-26T04:07:44;22.10;54.10
36638;DHT22;22637;48.150;11.574;2022-07-26T04:10:10;22.10;56.10
36638;DHT22;22637;48.150;11.574;2022-07-26T04:12:36;22.10;54.30
36638;DHT22;22637;48.150;11.574;2022-07-26T04:15:02;22.10;53.30
36638;DHT22;22637;48.150;11.574;2022-07-26T04:17:27;22.10;53.70
36638;DHT22;22637;48.150;11.574;2022-07-26T04:19:54;22.10;54.30
36638;DHT22;22637;48.150;11.574;2022-07-26T04:22:19;22.10;53.80
36638;DHT22;22637;48.150;11.574;2022-07-26T04:24:45;22.10;53.30
36638;DHT22;22637;48.150;11.574;2022-07-26T04:27:10;22.20;53.90
36638;DHT22;22637;48.150;11.574;2022-07-26T04:29:36;22.20;53.70
36638;DHT22;22637;48.150;11.574;2022-07-26T04:32:01;22.20;54.10
36638;DHT22;22637;48.150;11.574;2022-07-26T04:34:27;22.20;54.00
36638;DHT22;22637;48.150;11.574;2022-07-26T04:36:52;22.20;54.20
36638;DHT22;22637;48.150;11.574;2022-07-26T04:39:18;22.30;54.30
36638;DHT22;22637;48.150;11.574;2022-07-26T04:41:48;22.30;55.00
36638;DHT22;22637;48.150;11.574;2022-07-26T04:44:14;22.30;54.10
36638;DHT22;22637;48.150;11.574;2022-07-26T04:46:39;22.30;53.80
36638;DHT22;22637;48.150;11.574;2022-07-26T04:49:05;22.30;54.30
36638;DHT22;22637;48.150;11.574;2022-07-26T04:51:30;22.40;54.60
36638;DHT22;22637;48.150;11.574;2022-07-26T04:53:56;22.40;55.00
36638;DHT22;22637;48.150;11.574;2022-07-26T04:56:21;22.40;54.70
36638;DHT22;22637;48.150;11.574;2022-07-26T04:58:47;22.40;54.40
36638;DHT22;22637;48.150;11.574;2022-07-26T05:01:12;22.40;54.60
36638;DHT22;22637;48.150;11.574;2022-07-26T05:03:38;22.40;54.20
36638;DHT22;22637;48.150;11.574;2022-07-26T05:06:03;22.40;54.70
36638;DHT22;22637;48.150;11.574;2022-07-26T05:08:29;22.40;55.60
36638;DHT22;22637;48.150;11.574;2022-07-26T05:10:55;22.40;55.50
36638;DHT22;22637;48.150;11.574;2022-07-26T05:13:20;22.40;55.40
36638;DHT22;22637;48.150;11.574;2022-07-26T05:15:46;22.40;55.00
36638;DHT22;22637;48.150;11.574;2022-07-26T05:18:11;22.40;54.90
36638;DHT22;22637;48.150;11.574;2022-07-26T05:20:53;22.40;54.50
36638;DHT22;22637;48.150;11.574;2022-07-26T05:23:18;22.40;55.10
36638;DHT22;22637;48.150;11.574;2022-07-26T05:25:44;22.40;55.20
36638;DHT22;22637;48.150;11.574;2022-07-26T05:28:10;22.40;54.70
36638;DHT22;22637;48.150;11.574;2022-07-26T05:30:36;22.50;54.70
36638;DHT22;22637;48.150;11.574;2022-07-26T05:33:01;22.40;55.00
36638;DHT22;22637;48.150;11.574;2022-07-26T05:35:27;22.40;54.60
36638;DHT22;22637;48.150;11.574;2022-07-26T05:37:52;22.40;55.10
36638;DHT22;22637;48.150;11.574;2022-07-26T05:40:18;22.40;54.60
36638;DHT22;22637;48.150;11.574;2022-07-26T05:42:43;22.40;54.50
36638;DHT22;22637;48.150;11.574;2022-07-26T05:45:09;22.40;54.70
36638;DHT22;22637;48.150;11.574;2022-07-26T05:47:35;22.40;55.10
36638;DHT22;22637;48.150;11.574;2022-07-26T05:50:00;22.40;56.00
36638;DHT22;22637;48.150;11.574;2022-07-26T05:52:26;22.30;55.30
36638;DHT22;22637;48.150;11.574;2022-07-26T05:54:51;22.30;55.10
36638;DHT22;22637;48.150;11.574;2022-07-26T05:57:17;22.30;55.00
36638;DHT22;22637;48.150;11.574;2022-07-26T05:59:42;22.30;55.60
36638;DHT22;22637;48.150;11.574;2022-07-26T06:02:08;22.20;56.10
36638;DHT22;22637;48.150;11.574;2022-07-26T06:04:33;22.20;55.70
36638;DHT22;22637;48.150;11.574;2022-07-26T06:06:59;22.20;55.60
36638;DHT22;22637;48.150;11.574;2022-07-26T06:09:25;22.10;55.80
36638;DHT22;22637;48.150;11.574;2022-07-26T06:11:51;22.00;56.00
36638;DHT22;22637;48.150;11.574;2022-07-26T06:14:17;22.00;55.80
36638;DHT22;22637;48.150;11.574;2022-07-26T06:16:43;22.00;56.40
36638;DHT22;22637;48.150;11.574;2022-07-26T06:19:08;21.90;56.30
36638;DHT22;22637;48.150;11.574;2022-07-26T06:21:34;21.90;56.10
36638;DHT22;22637;48.150;11.574;2022-07-26T06:23:59;21.90;56.40
36638;DHT22;22637;48.150;11.574;2022-07-26T06:26:25;22.00;56.60
36638;DHT22;22637;48.150;11.574;2022-07-26T06:28:51;21.90;56.20
36638;DHT22;22637;48.150;11.574;2022-07-26T06:31:16;22.00;57.00
36638;DHT22;22637;48.150;11.574;2022-07-26T06:33:42;22.00;57.00
36638;DHT22;22637;48.150;11.574;2022-07-26T06:36:08;22.10;56.70
36638;DHT22;22637;48.150;11.574;2022-07-26T06:38:33;22.20;57.30
36638;DHT22;22637;48.150;11.574;2022-07-26T06:40:59;22.20;57.20
36638;DHT22;22637;48.150;11.574;2022-07-26T06:43:24;22.20;56.70
36638;DHT22;22637;48.150;11.574;2022-07-26T06:45:50;22.20;56.40
36638;DHT22;22637;48.150;11.574;2022-07-26T06:48:16;22.20;56.60
36638;DHT22;22637;48.150;11.574;2022-07-26T06:50:41;22.30;56.90
36638;DHT22;22637;48.150;11.574;2022-07-26T06:53:07;22.30;56.90
36638;DHT22;22637;48.150;11.574;2022-07-26T06:55:32;22.40;56.70
36638;DHT22;22637;48.150;11.574;2022-07-26T06:57:58;22.40;56.80
36638;DHT22;22637;48.150;11.574;2022-07-26T07:00:24;22.40;57.00
36638;DHT22;22637;48.150;11.574;2022-07-26T07:02:49;22.50;57.00
36638;DHT22;22637;48.150;11.574;2022-07-26T07:05:15;22.50;57.20
36638;DHT22;22637;48.150;11.574;2022-07-26T07:07:40;22.60;56.90
36638;DHT22;22637;48.150;11.574;2022-07-26T07:10:06;22.60;58.30
36638;DHT22;22637;48.150;11.574;2022-07-26T07:12:32;22.70;57.60
36638;DHT22;22637;48.150;11.574;2022-07-26T07:14:57;22.70;57.10
36638;DHT22;22637;48.150;11.574;2022-07-26T07:17:23;22.80;57.20
36638;DHT22;22637;48.150;11.574;2022-07-26T07:19:48;22.80;57.20
36638;DHT22;22637;48.150;11.574;2022-07-26T07:22:15;22.80;57.20
36638;DHT22;22637;48.150;11.574;2022-07-26T07:24:41;22.90;57.60
36638;DHT22;22637;48.150;11.574;2022-07-26T07:27:06;22.90;57.20
36638;DHT22;22637;48.150;11.574;2022-07-26T07:29:32;22.90;56.70
36638;DHT22;22637;48.150;11.574;2022-07-26T07:31:58;22.90;56.80
36638;DHT22;22637;48.150;11.574;2022-07-26T07:34:23;22.90;56.60
36638;DHT22;22637;48.150;11.574;2022-07-26T07:36:49;22.90;57.00
36638;DHT22;22637;48.150;11.574;2022-07-26T07:39:15;22.80;56.40
36638;DHT22;22637;48.150;11.574;2022-07-26T07:41:41;22.80;57.00
36638;DHT22;22637;48.150;11.574;2022-07-26T07:44:07;22.70;56.30
36638;DHT22;22637;48.150;11.574;2022-07-26T07:46:32;22.70;56.90
36638;DHT22;22637;48.150;11.574;2022-07-26T07:48:58;22.60;56.90
36638;DHT22;22637;48.150;11.574;2022-07-26T07:51:24;22.50;56.50
36638;DHT22;22637;48.150;11.574;2022-07-26T07:53:50;22.40;56.60
36638;DHT22;22637;48.150;11.574;2022-07-26T07:56:15;22.40;56.80
36638;DHT22;22637;48.150;11.574;2022-07-26T07:58:41;22.30;57.30
36638;DHT22;22637;48.150;11.574;2022-07-26T08:01:06;22.30;57.70
36638;DHT22;22637;48.150;11.574;2022-07-26T08:03:32;22.30;57.10
36638;DHT22;22637;48.150;11.574;2022-07-26T08:05:57;22.30;57.00
36638;DHT22;22637;48.150;11.574;2022-07-26T08:08:23;22.30;57.20
36638;DHT22;22637;48.150;11.574;2022-07-26T08:10:49;22.30;57.00
36638;DHT22;22637;48.150;11.574;2022-07-26T08:13:14;22.20;56.90
36638;DHT22;22637;48.150;11.574;2022-07-26T08:15:40;22.20;57.20
36638;DHT22;22637;48.150;11.574;2022-07-26T08:18:05;22.30;57.20
36638;DHT22;22637;48.150;11.574;2022-07-26T08:20:31;22.20;57.10
36638;DHT22;22637;48.150;11.574;2022-07-26T08:22:56;22.20;57.10
36638;DHT22;22637;48.150;11.574;2022-07-26T08:25:22;22.20;57.20
36638;DHT22;22637;48.150;11.574;2022-07-26T08:27:48;22.20;57.20
36638;DHT22;22637;48.150;11.574;2022-07-26T08:30:13;22.20;57.10
36638;DHT22;22637;48.150;11.574;2022-07-26T08:32:39;22.10;57.10
36638;DHT22;22637;48.150;11.574;2022-07-26T08:35:04;22.10;57.90
36638;DHT22;22637;48.150;11.574;2022-07-26T08:37:30;22.00;57.70
36638;DHT22;22637;48.150;11.574;2022-07-26T08:39:56;22.00;58.00
36638;DHT22;22637;48.150;11.574;2022-07-26T08:42:21;22.00;57.50
36638;DHT22;22637;48.150;11.574;2022-07-26T08:44:47;22.00;58.30
36638;DHT22;22637;48.150;11.574;2022-07-26T08:47:17;21.90;58.10
36638;DHT22;22637;48.150;11.574;2022-07-26T08:49:43;21.80;58.30
36638;DHT22;22637;48.150;11.574;2022-07-26T08:52:09;21.80;58.20
36638;DHT22;22637;48.150;11.574;2022-07-26T08:54:35;21.80;58.30
36638;DHT22;22637;48.150;11.574;2022-07-26T08:57:01;21.70;58.20
36638;DHT22;22637;48.150;11.574;2022-07-26T08:59:27;21.70;58.40
36638;DHT22;22637;48.150;11.574;2022-07-26T09:02:03;21.70;58.40
36638;DHT22;22637;48.150;11.574;2022-07-26T09:04:30;21.70;58.70
36638;DHT22;22637;48.150;11.574;2022-07-26T09:09:22;21.70;58.60
36638;DHT22;22637;48.150;11.574;2022-07-26T09:11:47;21.70;59.10
36638;DHT22;22637;48.150;11.574;2022-07-26T09:14:14;21.70;58.50
36638;DHT22;22637;48.150;11.574;2022-07-26T09:16:40;21.70;58.20
36638;DHT22;22637;48.150;11.574;2022-07-26T09:19:15;21.80;58.90
36638;DHT22;22637;48.150;11.574;2022-07-26T09:21:42;21.80;58.80
36638;DHT22;22637;48.150;11.574;2022-07-26T09:24:08;21.90;59.00
36638;DHT22;22637;48.150;11.574;2022-07-26T09:26:34;22.00;58.90
36638;DHT22;22637;48.150;11.574;2022-07-26T09:29:07;22.10;58.80
36638;DHT22;22637;48.150;11.574;2022-07-26T09:31:33;22.20;58.90
36638;DHT22;22637;48.150;11.574;2022-07-26T09:33:59;22.30;58.70
36638;DHT22;22637;48.150;11.574;2022-07-26T09:36:25;22.30;58.60
36638;DHT22;22637;48.150;11.574;2022-07-26T09:38:52;22.40;58.70
36638;DHT22;22637;48.150;11.574;2022-07-26T09:41:25;22.50;58.70
36638;DHT22;22637;48.150;11.574;2022-07-26T09:43:51;22.50;58.70
36638;DHT22;22637;48.150;11.574;2022-07-26T09:46:19;22.60;58.90
36638;DHT22;22637;48.150;11.574;2022-07-26T09:48:45;22.60;58.40
36638;DHT22;22637;48.150;11.574;2022-07-26T09:51:10;22.70;58.90
36638;DHT22;22637;48.150;11.574;2022-07-26T09:53:40;22.70;58.50
36638;DHT22;22637;48.150;11.574;2022-07-26T09:56:05;22.70;58.50
36638;DHT22;22637;48.150;11.574;2022-07-26T09:58:31;22.80;58.40
36638;DHT22;22637;48.150;11.574;2022-07-26T10:00:57;22.80;58.70
36638;DHT22;22637;48.150;11.574;2022-07-26T10:03:22;22.90;58.80
36638;DHT22;22637;48.150;11.574;2022-07-26T10:05:48;23.10;58.80
36638;DHT22;22637;48.150;11.574;2022-07-26T10:08:13;23.20;58.90
36638;DHT22;22637;48.150;11.574;2022-07-26T10:10:46;23.40;58.80
36638;DHT22;22637;48.150;11.574;2022-07-26T10:13:13;23.60;58.70
36638;DHT22;22637;48.150;11.574;2022-07-26T10:18:05;24.00;58.80
36638;DHT22;22637;48.150;11.574;2022-07-26T10:20:42;24.10;58.80
36638;DHT22;22637;48.150;11.574;2022-07-26T10:25:53;24.60;58.10
36638;DHT22;22637;48.150;11.574;2022-07-26T10:28:25;24.70;57.90
36638;DHT22;22637;48.150;11.574;2022-07-26T10:30:51;24.90;57.60
36638;DHT22;22637;48.150;11.574;2022-07-26T10:33:17;25.00;57.50
36638;DHT22;22637;48.150;11.574;2022-07-26T10:35:45;25.10;57.30
36638;DHT22;22637;48.150;11.574;2022-07-26T10:38:13;25.30;57.30
36638;DHT22;22637;48.150;11.574;2022-07-26T10:40:55;25.50;57.20
36638;DHT22;22637;48.150;11.574;2022-07-26T10:43:21;25.60;57.00
36638;DHT22;22637;48.150;11.574;2022-07-26T10:45:47;25.80;56.90
36638;DHT22;22637;48.150;11.574;2022-07-26T10:50:38;26.10;56.40
36638;DHT22;22637;48.150;11.574;2022-07-26T10:53:04;26.10;56.00
36638;DHT22;22637;48.150;11.574;2022-07-26T10:55:31;26.30;55.40
36638;DHT22;22637;48.150;11.574;2022-07-26T10:58:08;26.40;56.10
36638;DHT22;22637;48.150;11.574;2022-07-26T11:00:34;26.50;56.20
36638;DHT22;22637;48.150;11.574;2022-07-26T11:02:59;26.60;56.20
36638;DHT22;22637;48.150;11.574;2022-07-26T11:05:29;26.70;55.90
36638;DHT22;22637;48.150;11.574;2022-07-26T11:10:31;27.00;55.10
36638;DHT22;22637;48.150;11.574;2022-07-26T11:12:58;27.00;55.50
36638;DHT22;22637;48.150;11.574;2022-07-26T11:15:23;27.10;55.30
36638;DHT22;22637;48.150;11.574;2022-07-26T11:17:49;27.10;55.00
36638;DHT22;22637;48.150;11.574;2022-07-26T11:20:23;27.20;54.90
36638;DHT22;22637;48.150;11.574;2022-07-26T11:22:48;27.40;54.90
36638;DHT22;22637;48.150;11.574;2022-07-26T11:25:14;27.50;54.80
36638;DHT22;22637;48.150;11.574;2022-07-26T11:27:58;27.70;55.10
36638;DHT22;22637;48.150;11.574;2022-07-26T11:30:24;27.80;54.80
36638;DHT22;22637;48.150;11.574;2022-07-26T11:32:53;28.00;54.60
36638;DHT22;22637;48.150;11.574;2022-07-26T11:35:18;28.10;54.40
36638;DHT22;22637;48.150;11.574;2022-07-26T11:37:51;28.10;53.90
36638;DHT22;22637;48.150;11.574;2022-07-26T11:40:16;28.00;53.70
36638;DHT22;22637;48.150;11.574;2022-07-26T11:42:42;27.90;52.50
36638;DHT22;22637;48.150;11.574;2022-07-26T11:45:10;27.80;52.80
36638;DHT22;22637;48.150;11.574;2022-07-26T11:47:36;27.70;53.20
36638;DHT22;22637;48.150;11.574;2022-07-26T11:50:05;27.70;53.50
36638;DHT22;22637;48.150;11.574;2022-07-26T11:52:30;27.70;53.80
36638;DHT22;22637;48.150;11.574;2022-07-26T11:54:56;27.70;53.50
36638;DHT22;22637;48.150;11.574;2022-07-26T11:57:26;27.70;53.50
36638;DHT22;22637;48.150;11.574;2022-07-26T11:59:52;27.60;53.40
36638;DHT22;22637;48.150;11.574;2022-07-26T12:02:18;27.60;53.30
36638;DHT22;22637;48.150;11.574;2022-07-26T12:04:44;27.50;53.50
36638;DHT22;22637;48.150;11.574;2022-07-26T12:07:13;27.40;53.60
36638;DHT22;22637;48.150;11.574;2022-07-26T12:09:40;27.20;53.40
36638;DHT22;22637;48.150;11.574;2022-07-26T12:12:07;27.10;53.30
36638;DHT22;22637;48.150;11.574;2022-07-26T12:14:36;26.90;53.50
36638;DHT22;22637;48.150;11.574;2022-07-26T12:17:12;26.80;53.50
36638;DHT22;22637;48.150;11.574;2022-07-26T12:19:38;26.60;53.70
36638;DHT22;22637;48.150;11.574;2022-07-26T12:22:08;26.50;53.80
36638;DHT22;22637;48.150;11.574;2022-07-26T12:24:55;26.30;53.90
36638;DHT22;22637;48.150;11.574;2022-07-26T12:27:29;26.20;54.00
36638;DHT22;22637;48.150;11.574;2022-07-26T12:29:55;26.10;54.10
36638;DHT22;22637;48.150;11.574;2022-07-26T12:32:38;26.00;54.10
36638;DHT22;22637;48.150;11.574;2022-07-26T12:37:32;25.90;54.20
36638;DHT22;22637;48.150;11.574;2022-07-26T12:42:29;25.80;54.60
36638;DHT22;22637;48.150;11.574;2022-07-26T12:44:55;25.90;54.90
36638;DHT22;22637;48.150;11.574;2022-07-26T12:47:21;25.90;55.00
36638;DHT22;22637;48.150;11.574;2022-07-26T12:49:47;25.90;55.10
36638;DHT22;22637;48.150;11.574;2022-07-26T12:52:14;26.00;55.10
36638;DHT22;22637;48.150;11.574;2022-07-26T12:54:40;26.10;55.20
36638;DHT22;22637;48.150;11.574;2022-07-26T12:57:05;26.30;55.70
36638;DHT22;22637;48.150;11.574;2022-07-26T12:59:31;26.50;55.90
36638;DHT22;22637;48.150;11.574;2022-07-26T13:01:56;26.80;56.10
36638;DHT22;22637;48.150;11.574;2022-07-26T13:04:22;26.90;55.50
36638;DHT22;22637;48.150;11.574;2022-07-26T13:06:47;27.10;55.30
36638;DHT22;22637;48.150;11.574;2022-07-26T13:09:13;27.10;55.00
36638;DHT22;22637;48.150;11.574;2022-07-26T13:11:38;27.10;54.70
36638;DHT22;22637;48.150;11.574;2022-07-26T13:14:04;27.10;54.40
36638;DHT22;22637;48.150;11.574;2022-07-26T13:16:29;27.10;53.80
36638;DHT22;22637;48.150;11.574;2022-07-26T13:18:55;27.10;53.60
36638;DHT22;22637;48.150;11.574;2022-07-26T13:21:20;27.10;54.00
36638;DHT22;22637;48.150;11.574;2022-07-26T13:23:46;27.00;53.90
36638;DHT22;22637;48.150;11.574;2022-07-26T13:26:11;27.00;54.10
36638;DHT22;22637;48.150;11.574;2022-07-26T13:28:37;26.90;54.00
36638;DHT22;22637;48.150;11.574;2022-07-26T13:31:04;26.80;54.00
36638;DHT22;22637;48.150;11.574;2022-07-26T13:33:33;26.80;53.90
36638;DHT22;22637;48.150;11.574;2022-07-26T13:35:58;26.80;53.80
36638;DHT22;22637;48.150;11.574;2022-07-26T13:38:24;26.70;54.00
36638;DHT22;22637;48.150;11.574;2022-07-26T13:40:50;26.70;54.10
36638;DHT22;22637;48.150;11.574;2022-07-26T13:43:15;26.70;54.30
36638;DHT22;22637;48.150;11.574;2022-07-26T13:45:41;26.80;54.40
36638;DHT22;22637;48.150;11.574;2022-07-26T13:48:07;27.00;55.30
36638;DHT22;22637;48.150;11.574;2022-07-26T13:50:32;27.20;55.60
36638;DHT22;22637;48.150;11.574;2022-07-26T13:52:58;27.50;55.90
36638;DHT22;22637;48.150;11.574;2022-07-26T13:55:23;27.90;56.20
36638;DHT22;22637;48.150;11.574;2022-07-26T13:57:49;28.30;56.00
36638;DHT22;22637;48.150;11.574;2022-07-26T14:00:15;28.60;55.10
36638;DHT22;22637;48.150;11.574;2022-07-26T14:02:40;28.80;54.60
36638;DHT22;22637;48.150;11.574;2022-07-26T14:05:06;28.90;54.00
36638;DHT22;22637;48.150;11.574;2022-07-26T14:07:33;28.90;53.00
36638;DHT22;22637;48.150;11.574;2022-07-26T14:09:58;28.80;52.70
36638;DHT22;22637;48.150;11.574;2022-07-26T14:12:24;28.70;52.60
36638;DHT22;22637;48.150;11.574;2022-07-26T14:14:49;28.50;52.20
36638;DHT22;22637;48.150;11.574;2022-07-26T14:17:15;28.40;52.20
36638;DHT22;22637;48.150;11.574;2022-07-26T14:19:41;28.20;52.40
36638;DHT22;22637;48.150;11.574;2022-07-26T14:22:06;28.00;52.00
36638;DHT22;22637;48.150;11.574;2022-07-26T14:24:32;27.80;51.90
36638;DHT22;22637;48.150;11.574;2022-07-26T14:26:58;27.60;52.20
36638;DHT22;22637;48.150;11.574;2022-07-26T14:29:23;27.30;51.80
36638;DHT22;22637;48.150;11.574;2022-07-26T14:31:49;27.20;51.50
36638;DHT22;22637;48.150;11.574;2022-07-26T14:34:14;27.00;52.50
36638;DHT22;22637;48.150;11.574;2022-07-26T14:36:40;26.90;52.60
36638;DHT22;22637;48.150;11.574;2022-07-26T14:39:05;26.70;52.70
36638;DHT22;22637;48.150;11.574;2022-07-26T14:41:31;26.70;52.90
36638;DHT22;22637;48.150;11.574;2022-07-26T14:43:56;26.60;53.10
36638;DHT22;22637;48.150;11.574;2022-07-26T14:46:22;26.50;53.20
36638;DHT22;22637;48.150;11.574;2022-07-26T14:48:47;26.40;53.20
36638;DHT22;22637;48.150;11.574;2022-07-26T14:51:13;26.40;53.20
36638;DHT22;22637;48.150;11.574;2022-07-26T14:53:40;26.30;53.20
36638;DHT22;22637;48.150;11.574;2022-07-26T14:56:05;26.20;53.10
36638;DHT22;22637;48.150;11.574;2022-07-26T14:58:31;26.20;53.20
36638;DHT22;22637;48.150;11.574;2022-07-26T15:00:56;26.10;53.30
36638;DHT22;22637;48.150;11.574;2022-07-26T15:03:22;26.10;53.10
36638;DHT22;22637;48.150;11.574;2022-07-26T15:05:47;26.10;53.30
36638;DHT22;22637;48.150;11.574;2022-07-26T15:08:13;26.00;53.40
36638;DHT22;22637;48.150;11.574;2022-07-26T15:10:38;25.90;53.40
36638;DHT22;22637;48.150;11.574;2022-07-26T15:13:04;25.90;53.40
36638;DHT22;22637;48.150;11.574;2022-07-26T15:15:30;25.90;53.50
36638;DHT22;22637;48.150;11.574;2022-07-26T15:17:56;25.90;53.70
36638;DHT22;22637;48.150;11.574;2022-07-26T15:20:22;25.80;53.70
36638;DHT22;22637;48.150;11.574;2022-07-26T15:22:48;25.80;53.70
36638;DHT22;22637;48.150;11.574;2022-07-26T15:25:14;25.80;53.90
36638;DHT22;22637;48.150;11.574;2022-07-26T15:27:40;25.90;54.00